Kelso, Tennessee
Current Conditions -  °F | °C
As of 1:35 PM on Thursday 18 Dec 2014 (Local Time) from KFYM Reporting Station
Overcast Overcast  
Wind Chill: 41°   Ceiling: 4900
Heat Index: 41°   Visibility: 10mi
Dew Point: 32°   Wind: 3mph
Humidity: 70%   Direction: 360°N
Pressure: 30.17"   Gusts: NA
Location:  35.13°N, 86.47°W
Report Text: KFYM 181935Z AUTO 36003KT 10SM OVC049 05/00 A3017 RMK
Loading
Personal Weather Stations






























Interactive Weather Map New forecast layout! Learn more

10-Day Weather Forecast

Advertisements
Track Severe Weather on mobile